createdAt,value
2019-06-01T00:01:26.340Z,60.16
2019-06-01T00:03:59.309Z,61.69
2019-06-01T00:06:32.388Z,63.16
2019-06-01T00:09:07.321Z,60.92
2019-06-01T00:11:41.701Z,52.22
2019-06-01T00:14:16.104Z,53.58
2019-06-01T00:16:50.385Z,56.63
2019-06-01T00:19:23.479Z,58.84
2019-06-01T00:21:56.367Z,60.85
2019-06-01T00:24:29.332Z,62.41
2019-06-01T00:27:02.186Z,61.08
2019-06-01T00:29:35.008Z,52.72
2019-06-01T00:32:07.936Z,53.55
2019-06-01T00:34:41.279Z,55.97
2019-06-01T00:37:15.415Z,58.55
2019-06-01T00:39:48.469Z,60.82
2019-06-01T00:42:21.337Z,62.48
2019-06-01T00:44:54.570Z,61.18
2019-06-01T00:47:27.430Z,53.44
2019-06-01T00:50:00.302Z,53.66
2019-06-01T00:52:33.376Z,56.21
2019-06-01T00:55:06.497Z,58.57
2019-06-01T00:57:39.323Z,60.42
2019-06-01T01:00:12.316Z,61.89
2019-06-01T01:02:46.143Z,63.24
2019-06-01T01:05:20.347Z,61.35
2019-06-01T01:07:53.513Z,52.82
2019-06-01T01:10:26.905Z,53.14
2019-06-01T01:13:16.235Z,56.18
2019-06-01T01:15:49.914Z,58.28
2019-06-01T01:18:22.908Z,60.30
2019-06-01T01:20:56.269Z,61.33
2019-06-01T01:23:29.345Z,62.92
2019-06-01T01:26:02.333Z,60.23
2019-06-01T01:28:35.313Z,52.38
2019-06-01T01:31:13.820Z,53.57
2019-06-01T01:33:42.765Z,56.49
2019-06-01T01:36:15.629Z,59.03
2019-06-01T01:38:50.347Z,61.50
2019-06-01T01:41:23.033Z,63.02
2019-06-01T01:43:56.569Z,61.54
2019-06-01T01:46:29.701Z,53.46
2019-06-01T01:49:02.703Z,54.52
2019-06-01T01:51:35.995Z,57.37
2019-06-01T01:54:09.014Z,59.63
2019-06-01T01:56:41.878Z,61.63
2019-06-01T01:59:14.746Z,63.48
2019-06-01T02:01:47.521Z,61.76
2019-06-01T02:04:20.495Z,53.43
2019-06-01T02:06:53.952Z,53.36
2019-06-01T02:09:26.881Z,55.99
2019-06-01T02:11:59.898Z,58.47
2019-06-01T02:14:33.086Z,60.14
2019-06-01T02:17:05.938Z,61.71
2019-06-01T02:19:38.832Z,63.45
2019-06-01T02:22:11.806Z,61.49
2019-06-01T02:24:44.592Z,53.05
2019-06-01T02:27:17.421Z,53.37
2019-06-01T02:29:50.357Z,56.50
2019-06-01T02:32:23.319Z,59.13
2019-06-01T02:34:56.528Z,60.81
2019-06-01T02:37:30.778Z,62.08
2019-06-01T02:40:05.486Z,63.70
2019-06-01T02:42:38.979Z,61.04
2019-06-01T02:45:13.917Z,52.46
2019-06-01T02:47:46.697Z,53.45
2019-06-01T02:50:19.894Z,56.51
2019-06-01T02:52:52.702Z,59.09
2019-06-01T02:55:25.501Z,60.99
2019-06-01T02:57:58.436Z,62.44
2019-06-01T03:01:30.336Z,61.15
2019-06-01T03:04:08.134Z,52.96
2019-06-01T03:06:44.170Z,55.42
2019-06-01T03:09:17.142Z,58.24
2019-06-01T03:11:54.185Z,60.18
2019-06-01T03:14:29.415Z,61.95
2019-06-01T03:17:03.697Z,63.34
2019-06-01T03:19:40.082Z,61.34
2019-06-01T03:22:15.624Z,53.15
2019-06-01T03:24:49.964Z,53.45
2019-06-01T03:27:25.715Z,56.00
2019-06-01T03:30:00.347Z,58.46
2019-06-01T03:32:36.802Z,61.12
2019-06-01T03:35:08.812Z,62.60
2019-06-01T03:37:41.988Z,60.99
2019-06-01T03:40:23.548Z,52.91
2019-06-01T03:42:49.656Z,53.67
2019-06-01T03:45:25.566Z,56.63
2019-06-01T03:47:58.461Z,59.13
2019-06-01T03:50:31.273Z,61.27
2019-06-01T03:53:04.283Z,62.95
2019-06-01T03:55:39.132Z,61.30
2019-06-01T03:58:12.122Z,52.58
2019-06-01T04:00:45.337Z,53.14
2019-06-01T04:03:18.121Z,56.12
2019-06-01T04:05:51.289Z,58.52
2019-06-01T04:08:24.330Z,60.45
2019-06-01T04:10:57.367Z,61.88
2019-06-01T04:13:30.303Z,63.22
2019-06-01T04:16:03.742Z,61.10
2019-06-01T04:18:36.742Z,53.14
2019-06-01T04:21:10.276Z,53.75
2019-06-01T04:23:43.276Z,56.77
2019-06-01T04:26:16.329Z,59.53
2019-06-01T04:28:49.401Z,61.70
2019-06-01T04:31:22.523Z,63.21
2019-06-01T04:33:56.103Z,60.91
2019-06-01T04:36:29.133Z,52.92
2019-06-01T04:39:03.388Z,53.59
2019-06-01T04:41:41.024Z,56.60
2019-06-01T04:44:18.182Z,58.74
2019-06-01T04:46:51.232Z,60.99
2019-06-01T04:49:24.194Z,62.39
2019-06-01T04:51:57.735Z,61.46
2019-06-01T04:54:30.694Z,53.89
2019-06-01T04:57:04.773Z,53.81
2019-06-01T04:59:38.162Z,56.58
2019-06-01T05:02:11.594Z,59.04
2019-06-01T05:04:45.173Z,61.10
2019-06-01T05:07:18.278Z,62.88
2019-06-01T05:09:51.218Z,59.78
2019-06-01T05:12:24.372Z,53.17
2019-06-01T05:14:57.665Z,54.87
2019-06-01T05:17:30.753Z,57.57
2019-06-01T05:20:03.824Z,59.93
2019-06-01T05:22:36.647Z,61.99
2019-06-01T05:25:11.863Z,63.68
2019-06-01T05:27:44.546Z,60.60
2019-06-01T05:30:17.885Z,53.74
2019-06-01T05:32:50.883Z,55.64
2019-06-01T05:35:23.812Z,58.34
2019-06-01T05:37:56.774Z,60.68
2019-06-01T05:40:30.035Z,62.47
2019-06-01T05:43:05.838Z,61.04
2019-06-01T05:45:38.983Z,53.00
2019-06-01T05:48:13.128Z,52.64
2019-06-01T05:50:46.924Z,55.42
2019-06-01T05:53:23.136Z,58.26
2019-06-01T05:55:56.763Z,60.14
2019-06-01T05:58:29.964Z,61.29
2019-06-01T06:01:03.041Z,62.07
2019-06-01T06:03:40.370Z,63.52
2019-06-01T06:06:11.759Z,61.45
2019-06-01T06:08:45.213Z,52.98
2019-06-01T06:11:21.140Z,50.44
2019-06-01T06:13:54.270Z,53.14
2019-06-01T06:16:27.478Z,55.23
2019-06-01T06:19:00.677Z,56.98
2019-06-01T06:21:34.119Z,58.33
2019-06-01T06:24:07.188Z,59.50
2019-06-01T06:26:41.178Z,60.08
2019-06-01T06:29:14.710Z,61.12
2019-06-01T06:31:47.965Z,61.94
2019-06-01T06:34:21.606Z,61.52
2019-06-01T06:36:54.923Z,62.54
2019-06-01T06:39:27.770Z,60.25
2019-06-01T06:42:00.867Z,52.04
2019-06-01T06:44:33.930Z,52.80
2019-06-01T06:47:06.898Z,54.54
2019-06-01T06:49:39.879Z,54.97
2019-06-01T06:52:13.785Z,56.04
2019-06-01T06:54:46.698Z,56.08
2019-06-01T06:57:20.139Z,57.02
2019-06-01T06:59:53.102Z,58.14
2019-06-01T07:02:27.053Z,57.50
2019-06-01T07:05:00.224Z,57.12
2019-06-01T07:07:34.558Z,56.27
2019-06-01T07:10:08.277Z,56.26
2019-06-01T07:12:41.251Z,57.04
2019-06-01T07:15:14.490Z,57.25
2019-06-01T07:17:47.340Z,56.88
2019-06-01T07:20:20.129Z,57.81
2019-06-01T07:22:52.974Z,57.49
2019-06-01T07:25:26.880Z,57.19
2019-06-01T07:28:00.084Z,56.97
2019-06-01T07:30:49.748Z,55.62
2019-06-01T07:33:08.605Z,57.43
2019-06-01T07:35:41.442Z,56.18
2019-06-01T07:38:14.287Z,55.94
2019-06-01T07:40:47.207Z,55.27
2019-06-01T07:43:20.553Z,54.84
2019-06-01T07:45:53.504Z,54.36
2019-06-01T07:48:27.164Z,55.12
2019-06-01T07:51:00.059Z,54.09
2019-06-01T07:53:33.015Z,54.02
2019-06-01T07:56:05.834Z,53.84
2019-06-01T07:58:38.809Z,52.88
2019-06-01T08:01:11.742Z,52.54
2019-06-01T08:03:44.639Z,52.88
2019-06-01T08:06:17.502Z,53.05
2019-06-01T08:08:50.781Z,51.64
2019-06-01T08:11:25.337Z,52.16
2019-06-01T08:13:58.181Z,51.66
2019-06-01T08:16:32.022Z,51.26
2019-06-01T08:19:04.950Z,51.28
2019-06-01T08:21:37.862Z,50.74
2019-06-01T08:24:10.778Z,51.04
2019-06-01T08:26:43.806Z,51.02
2019-06-01T08:29:17.089Z,52.14
2019-06-01T08:31:55.534Z,51.80
2019-06-01T08:34:25.193Z,51.10
2019-06-01T08:36:58.049Z,50.61
2019-06-01T08:39:31.458Z,50.50
2019-06-01T08:42:04.390Z,49.83
2019-06-01T08:44:38.372Z,48.46
2019-06-01T08:47:11.837Z,48.72
2019-06-01T08:49:44.680Z,48.71
2019-06-01T08:52:17.555Z,48.24
2019-06-01T08:54:50.489Z,48.54
2019-06-01T08:57:24.178Z,48.74
2019-06-01T08:59:57.870Z,48.49
2019-06-01T09:02:30.925Z,47.68
2019-06-01T09:05:03.846Z,48.62
2019-06-01T09:07:36.679Z,46.56
2019-06-01T09:10:10.801Z,46.23
2019-06-01T09:12:43.619Z,46.27
2019-06-01T09:15:16.898Z,47.00
2019-06-01T09:17:49.664Z,45.25
2019-06-01T09:20:22.512Z,46.81
2019-06-01T09:22:55.459Z,47.12
2019-06-01T09:25:29.543Z,46.44
2019-06-01T09:28:02.539Z,45.88
2019-06-01T09:30:36.278Z,45.30
2019-06-01T09:33:09.223Z,45.72
2019-06-01T09:35:53.994Z,45.31
2019-06-01T09:38:16.482Z,46.11
2019-06-01T09:40:49.435Z,46.74
2019-06-01T09:43:22.512Z,46.32
2019-06-01T09:45:55.339Z,46.14
2019-06-01T09:48:29.288Z,46.30
2019-06-01T09:51:02.431Z,45.51
2019-06-01T09:53:36.113Z,46.35
2019-06-01T09:56:09.069Z,46.26
2019-06-01T09:58:41.937Z,45.83
2019-06-01T10:01:14.844Z,45.70
2019-06-01T10:03:48.052Z,46.23
2019-06-01T10:06:20.838Z,46.61
2019-06-01T10:08:53.753Z,47.26
2019-06-01T10:11:26.547Z,47.04
2019-06-01T10:13:59.650Z,47.82
2019-06-01T10:16:32.825Z,48.59
2019-06-01T10:19:05.773Z,48.72
2019-06-01T10:21:38.636Z,48.41
2019-06-01T10:24:11.449Z,48.87
2019-06-01T10:26:44.382Z,49.02
2019-06-01T10:29:17.177Z,49.04
2019-06-01T10:31:51.088Z,48.66
2019-06-01T10:34:24.023Z,48.44
2019-06-01T10:36:56.827Z,49.37
2019-06-01T10:39:31.128Z,48.68
2019-06-01T10:42:04.074Z,49.29
2019-06-01T10:44:41.765Z,49.81
2019-06-01T10:47:11.677Z,50.15
2019-06-01T10:49:44.525Z,51.94
2019-06-01T10:52:17.375Z,52.49
2019-06-01T10:54:52.807Z,52.93
2019-06-01T10:57:25.649Z,53.03
2019-06-01T10:59:58.658Z,53.80
2019-06-01T11:02:34.757Z,54.25
2019-06-01T11:05:09.127Z,54.18
2019-06-01T11:07:43.094Z,54.59
2019-06-01T11:10:16.419Z,54.00
2019-06-01T11:12:49.227Z,53.81
2019-06-01T11:15:22.194Z,53.24
2019-06-01T11:17:57.414Z,53.97
2019-06-01T11:20:31.391Z,52.79
2019-06-01T11:23:05.395Z,53.41
2019-06-01T11:25:39.575Z,51.85
2019-06-01T11:28:12.814Z,51.89
2019-06-01T11:30:46.108Z,51.14
2019-06-01T11:33:18.988Z,49.38
2019-06-01T11:35:51.979Z,49.41
2019-06-01T11:38:24.762Z,47.65
2019-06-01T11:40:58.648Z,48.06
2019-06-01T11:43:31.544Z,47.35
2019-06-01T11:46:04.461Z,47.19
2019-06-01T11:48:37.337Z,47.00
2019-06-01T11:51:10.200Z,46.60
2019-06-01T11:53:45.692Z,46.05
2019-06-01T11:56:18.698Z,46.18
2019-06-01T11:58:51.884Z,45.76
2019-06-01T12:01:25.091Z,45.01
2019-06-01T12:03:57.964Z,45.65
2019-06-01T12:06:30.895Z,45.32
2019-06-01T12:09:03.907Z,46.01
2019-06-01T12:11:37.888Z,46.25
2019-06-01T12:14:11.873Z,45.66
2019-06-01T12:16:44.965Z,45.74
2019-06-01T12:19:18.349Z,46.73
2019-06-01T12:21:51.151Z,43.91
2019-06-01T12:24:25.754Z,44.48
2019-06-01T12:26:58.932Z,43.91
2019-06-01T12:29:31.954Z,43.62
2019-06-01T12:32:04.869Z,43.50
2019-06-01T12:34:38.093Z,42.68
2019-06-01T12:37:11.226Z,41.86
2019-06-01T12:39:44.488Z,42.39
2019-06-01T12:42:17.270Z,41.65
2019-06-01T12:44:50.122Z,42.22
2019-06-01T12:47:23.057Z,42.15
2019-06-01T12:49:56.261Z,41.98
2019-06-01T12:52:29.325Z,43.45
2019-06-01T12:55:02.137Z,43.76
2019-06-01T12:57:35.215Z,43.60
2019-06-01T13:00:09.333Z,42.73
2019-06-01T13:02:46.176Z,41.97
2019-06-01T13:05:17.242Z,41.70
2019-06-01T13:07:59.841Z,42.48
2019-06-01T13:10:24.665Z,42.54
2019-06-01T13:12:57.748Z,41.88
2019-06-01T13:15:30.740Z,39.69
2019-06-01T13:18:03.558Z,40.44
2019-06-01T13:20:36.359Z,39.54
2019-06-01T13:23:09.304Z,39.87
2019-06-01T13:25:43.472Z,40.66
2019-06-01T13:28:16.700Z,39.80
2019-06-01T13:30:51.084Z,40.53
2019-06-01T13:33:24.314Z,39.98
2019-06-01T13:35:57.780Z,40.47
2019-06-01T13:38:30.947Z,40.63
2019-06-01T13:41:03.840Z,40.57
2019-06-01T13:43:36.809Z,40.90
2019-06-01T13:46:11.805Z,41.81
2019-06-01T13:48:45.528Z,42.01
2019-06-01T13:51:18.604Z,41.88
2019-06-01T13:53:52.772Z,42.32
2019-06-01T13:56:25.869Z,41.95
2019-06-01T13:58:58.742Z,42.42
2019-06-01T14:01:31.585Z,42.07
2019-06-01T14:04:04.445Z,42.84
2019-06-01T14:06:37.248Z,42.37
2019-06-01T14:09:11.066Z,42.27
2019-06-01T14:11:45.275Z,42.56
2019-06-01T14:14:18.439Z,42.02
2019-06-01T14:16:51.814Z,42.41
2019-06-01T14:19:24.811Z,42.30
2019-06-01T14:21:57.728Z,42.89
2019-06-01T14:24:30.869Z,41.50
2019-06-01T14:27:03.796Z,42.22
2019-06-01T14:29:36.668Z,41.49
2019-06-01T14:32:09.805Z,41.86
2019-06-01T14:34:42.704Z,42.31
2019-06-01T14:37:15.678Z,42.17
2019-06-01T14:39:50.849Z,41.67
2019-06-01T14:42:23.707Z,41.73
2019-06-01T14:44:56.871Z,39.59
2019-06-01T14:47:31.167Z,39.77
2019-06-01T14:50:04.096Z,39.19
2019-06-01T14:52:36.903Z,39.81
2019-06-01T14:55:10.332Z,39.73
2019-06-01T14:57:43.328Z,39.43
2019-06-01T15:00:17.185Z,39.69
2019-06-01T15:02:50.481Z,38.76
2019-06-01T15:05:23.461Z,38.64
2019-06-01T15:07:57.287Z,39.43
2019-06-01T15:10:31.535Z,39.19
2019-06-01T15:13:05.114Z,39.15
2019-06-01T15:15:38.128Z,39.00
2019-06-01T15:18:11.241Z,39.08
2019-06-01T15:20:44.134Z,38.98
2019-06-01T15:23:17.113Z,38.95
2019-06-01T15:25:52.372Z,39.08
2019-06-01T15:28:25.380Z,38.67
2019-06-01T15:30:59.266Z,39.00
2019-06-01T15:33:34.341Z,38.79
2019-06-01T15:36:07.238Z,39.11
2019-06-01T15:38:40.155Z,39.97
2019-06-01T15:41:13.030Z,39.57
2019-06-01T15:43:46.364Z,39.79
2019-06-01T15:46:19.333Z,40.00
2019-06-01T15:48:53.504Z,39.56
2019-06-01T15:51:26.812Z,39.15
2019-06-01T15:54:00.872Z,39.15
2019-06-01T15:56:34.252Z,39.79
2019-06-01T15:59:07.055Z,39.06
2019-06-01T16:01:40.026Z,39.22
2019-06-01T16:04:12.956Z,38.58
2019-06-01T16:06:46.111Z,39.13
2019-06-01T16:09:19.016Z,39.93
2019-06-01T16:11:53.363Z,40.22
2019-06-01T16:14:26.347Z,40.72
2019-06-01T16:17:00.702Z,39.71
2019-06-01T16:19:34.952Z,39.51
2019-06-01T16:22:08.018Z,39.61
2019-06-01T16:24:40.906Z,39.35
2019-06-01T16:27:13.689Z,39.96
2019-06-01T16:29:46.702Z,40.35
2019-06-01T16:32:19.551Z,40.09
2019-06-01T16:34:52.433Z,40.38
2019-06-01T16:37:25.218Z,40.51
2019-06-01T16:40:02.540Z,40.99
2019-06-01T16:42:32.948Z,41.31
2019-06-01T16:45:07.216Z,41.09
2019-06-01T16:47:40.017Z,41.77
2019-06-01T16:50:14.409Z,41.55
2019-06-01T16:52:47.271Z,41.67
2019-06-01T16:55:20.497Z,42.20
2019-06-01T16:57:53.376Z,41.87
2019-06-01T17:00:26.258Z,42.39
2019-06-01T17:03:00.514Z,42.56
2019-06-01T17:05:33.623Z,42.95
2019-06-01T17:08:07.077Z,42.68
2019-06-01T17:10:40.025Z,42.32
2019-06-01T17:13:12.840Z,42.71
2019-06-01T17:15:46.016Z,43.32
2019-06-01T17:18:18.842Z,43.39
2019-06-01T17:20:53.000Z,43.63
2019-06-01T17:23:27.845Z,43.84
2019-06-01T17:26:01.841Z,44.42
2019-06-01T17:28:35.018Z,44.52
2019-06-01T17:31:08.475Z,44.49
2019-06-01T17:33:41.652Z,45.12
2019-06-01T17:36:14.486Z,45.62
2019-06-01T17:38:47.449Z,45.17
2019-06-01T17:41:20.646Z,45.24
2019-06-01T17:43:53.627Z,45.43
2019-06-01T17:46:27.567Z,45.68
2019-06-01T17:49:01.993Z,45.38
2019-06-01T17:51:34.964Z,45.32
2019-06-01T17:54:08.414Z,45.48
2019-06-01T17:56:41.417Z,45.46
2019-06-01T17:59:14.391Z,45.59
2019-06-01T18:01:47.712Z,45.75
2019-06-01T18:04:22.272Z,46.13
2019-06-01T18:06:56.184Z,46.54
2019-06-01T18:09:29.045Z,46.66
2019-06-01T18:12:02.083Z,46.76
2019-06-01T18:14:35.153Z,47.02
2019-06-01T18:17:10.418Z,47.34
2019-06-01T18:19:43.433Z,47.46
2019-06-01T18:22:17.854Z,47.27
2019-06-01T18:24:51.106Z,47.85
2019-06-01T18:27:24.173Z,48.54
2019-06-01T18:29:57.174Z,50.31
2019-06-01T18:32:33.092Z,49.63
2019-06-01T18:35:07.123Z,50.31
2019-06-01T18:37:40.816Z,50.04
2019-06-01T18:40:16.748Z,50.54
2019-06-01T18:42:52.081Z,50.86
2019-06-01T18:45:25.324Z,50.83
2019-06-01T18:47:58.700Z,51.40
2019-06-01T18:50:31.812Z,51.77
2019-06-01T18:53:06.007Z,52.86
2019-06-01T18:55:39.370Z,54.51
2019-06-01T18:58:12.583Z,53.78
2019-06-01T19:00:46.181Z,54.73
2019-06-01T19:03:19.213Z,55.36
2019-06-01T19:05:52.220Z,56.20
2019-06-01T19:08:25.177Z,56.55
2019-06-01T19:10:58.336Z,57.19
2019-06-01T19:13:31.610Z,57.05
2019-06-01T19:16:05.790Z,57.39
2019-06-01T19:18:38.947Z,57.08
2019-06-01T19:21:12.708Z,57.35
2019-06-01T19:23:45.919Z,57.35
2019-06-01T19:26:18.980Z,57.77
2019-06-01T19:28:53.153Z,57.79
2019-06-01T19:31:26.658Z,57.83
2019-06-01T19:34:00.035Z,58.11
2019-06-01T19:36:34.150Z,58.12
2019-06-01T19:39:09.266Z,58.04
2019-06-01T19:41:45.158Z,58.34
2019-06-01T19:44:17.843Z,58.59
2019-06-01T19:46:50.987Z,58.98
2019-06-01T19:49:24.381Z,59.56
2019-06-01T19:51:58.283Z,59.82
2019-06-01T19:54:31.210Z,60.12
2019-06-01T19:57:04.203Z,60.34
2019-06-01T19:59:37.255Z,60.94
2019-06-01T20:02:26.238Z,61.61
2019-06-01T20:04:45.143Z,61.66
2019-06-01T20:07:19.317Z,62.07
2019-06-01T20:09:52.400Z,62.15
2019-06-01T20:12:25.706Z,62.24
2019-06-01T20:14:59.580Z,63.04
2019-06-01T20:17:32.834Z,61.42
2019-06-01T20:20:06.060Z,52.77
2019-06-01T20:22:39.407Z,50.36
2019-06-01T20:25:13.241Z,51.89
2019-06-01T20:27:46.308Z,54.00
2019-06-01T20:30:19.898Z,55.13
2019-06-01T20:32:53.204Z,56.20
2019-06-01T20:35:26.253Z,57.31
2019-06-01T20:37:59.257Z,57.89
2019-06-01T20:40:32.396Z,58.97
2019-06-01T20:43:06.704Z,60.12
2019-06-01T20:45:39.883Z,61.37
2019-06-01T20:48:13.284Z,62.44
2019-06-01T20:50:47.548Z,62.90
2019-06-01T20:53:21.044Z,60.93
2019-06-01T20:55:54.858Z,52.32
2019-06-01T20:58:27.814Z,51.55
2019-06-01T21:01:00.803Z,53.74
2019-06-01T21:03:33.994Z,55.52
2019-06-01T21:06:07.018Z,57.14
2019-06-01T21:08:39.879Z,58.55
2019-06-01T21:11:14.414Z,59.60
2019-06-01T21:13:47.359Z,60.27
2019-06-01T21:16:20.338Z,60.94
2019-06-01T21:18:53.518Z,61.09
2019-06-01T21:21:26.486Z,62.03
2019-06-01T21:23:59.950Z,62.60
2019-06-01T21:26:33.161Z,61.56
2019-06-01T21:29:06.142Z,53.19
2019-06-01T21:31:39.427Z,51.77
2019-06-01T21:34:12.397Z,53.90
2019-06-01T21:36:45.481Z,56.26
2019-06-01T21:39:19.626Z,58.60
2019-06-01T21:41:52.950Z,59.40
2019-06-01T21:44:26.425Z,60.52
2019-06-01T21:46:59.410Z,61.22
2019-06-01T21:49:32.475Z,62.58
2019-06-01T21:52:05.841Z,60.16
2019-06-01T21:54:39.014Z,52.27
2019-06-01T21:57:11.935Z,52.76
2019-06-01T21:59:45.120Z,54.33
2019-06-01T22:02:18.695Z,55.54
2019-06-01T22:04:51.872Z,57.05
2019-06-01T22:07:25.419Z,57.88
2019-06-01T22:09:58.444Z,59.03
2019-06-01T22:12:31.448Z,60.50
2019-06-01T22:15:04.321Z,61.84
2019-06-01T22:17:38.054Z,62.11
2019-06-01T22:20:11.029Z,63.43
2019-06-01T22:22:43.930Z,61.26
2019-06-01T22:25:17.983Z,52.60
2019-06-01T22:27:51.197Z,52.83
2019-06-01T22:30:24.793Z,55.02
2019-06-01T22:32:58.673Z,57.33
2019-06-01T22:35:31.745Z,58.97
2019-06-01T22:38:04.762Z,59.69
2019-06-01T22:40:37.600Z,61.09
2019-06-01T22:43:10.536Z,61.66
2019-06-01T22:45:43.980Z,62.67
2019-06-01T22:48:17.283Z,60.67
2019-06-01T22:50:50.330Z,51.60
2019-06-01T22:53:24.113Z,52.18
2019-06-01T22:55:58.185Z,55.12
2019-06-01T22:58:31.661Z,56.98
2019-06-01T23:01:05.745Z,59.09
2019-06-01T23:03:38.878Z,60.10
2019-06-01T23:06:12.219Z,61.45
2019-06-01T23:08:45.480Z,62.56
2019-06-01T23:11:19.541Z,60.42
2019-06-01T23:13:53.853Z,52.00
2019-06-01T23:16:27.647Z,52.81
2019-06-01T23:19:00.913Z,55.04
2019-06-01T23:21:34.001Z,57.59
2019-06-01T23:24:07.029Z,59.06
2019-06-01T23:26:40.008Z,60.59
2019-06-01T23:29:13.140Z,61.89
2019-06-01T23:31:46.159Z,62.90
2019-06-01T23:34:19.160Z,60.12
2019-06-01T23:36:52.278Z,51.68
2019-06-01T23:39:25.151Z,52.71
2019-06-01T23:41:58.132Z,55.05
2019-06-01T23:44:33.582Z,57.36
2019-06-01T23:47:05.945Z,58.98
2019-06-01T23:49:38.896Z,60.14
2019-06-01T23:52:13.097Z,61.64
2019-06-01T23:54:46.051Z,62.53
2019-06-01T23:57:20.777Z,60.27
2019-06-01T23:59:53.773Z,52.08
